EJA1440 KSYR-CYUL
Flight info
| Callsign | EJA1440 |
|---|---|
| Flight time | 0h 42m |
| Altitude | 35000 |
| Route | ART IMPAC4 |
| Aircraft | C750/M-SBDE3FGHRWXY/S |
Departure
| Time | 2026-05-04 00:33 |
|---|---|
| Airport | Syracuse Hancock International Airport (KSYR) |
Arrival
| Time | 2026-05-04 01:16 |
|---|---|
| Airport | Montreal / Pierre Elliott Trudeau International Airport (CYUL) |
| Time | Latitude | Longitude | Altitude | Speed | Heading |
|---|---|---|---|---|---|
| 2026-05-04 00:19 | 43.11113 | -76.12425 | 423 ft | 0 kts | 357° |
| 2026-05-04 00:23 | 43.11111 | -76.12425 | 425 ft | 3 kts | 357° |
| 2026-05-04 00:23 | 43.11092 | -76.12423 | 422 ft | 3 kts | 357° |
| 2026-05-04 00:23 | 43.11073 | -76.12422 | 418 ft | 3 kts | 357° |
| 2026-05-04 00:23 | 43.11055 | -76.12423 | 422 ft | 2 kts | 49° |
| 2026-05-04 00:24 | 43.11051 | -76.12430 | 425 ft | 0 kts | 86° |
| 2026-05-04 00:25 | 43.11051 | -76.12418 | 419 ft | 2 kts | 86° |
| 2026-05-04 00:25 | 43.11053 | -76.12390 | 427 ft | 4 kts | 86° |
| 2026-05-04 00:26 | 43.11055 | -76.12346 | 426 ft | 6 kts | 86° |
| 2026-05-04 00:26 | 43.11057 | -76.12285 | 425 ft | 7 kts | 88° |
| 2026-05-04 00:26 | 43.11055 | -76.12219 | 424 ft | 7 kts | 115° |
| 2026-05-04 00:26 | 43.11022 | -76.12177 | 425 ft | 6 kts | 157° |
| 2026-05-04 00:27 | 43.10974 | -76.12159 | 425 ft | 10 kts | 142° |
| 2026-05-04 00:27 | 43.10964 | -76.12029 | 423 ft | 20 kts | 87° |
| 2026-05-04 00:27 | 43.10971 | -76.11802 | 420 ft | 21 kts | 87° |
| 2026-05-04 00:27 | 43.10977 | -76.11616 | 423 ft | 18 kts | 87° |
| 2026-05-04 00:28 | 43.10983 | -76.11454 | 424 ft | 17 kts | 87° |
| 2026-05-04 00:28 | 43.10988 | -76.11287 | 421 ft | 18 kts | 87° |
| 2026-05-04 00:28 | 43.10993 | -76.11130 | 428 ft | 15 kts | 87° |
| 2026-05-04 00:28 | 43.10997 | -76.10996 | 427 ft | 15 kts | 87° |
| 2026-05-04 00:29 | 43.11002 | -76.10842 | 418 ft | 17 kts | 87° |
| 2026-05-04 00:29 | 43.11007 | -76.10684 | 424 ft | 16 kts | 87° |
| 2026-05-04 00:29 | 43.11012 | -76.10530 | 420 ft | 17 kts | 87° |
| 2026-05-04 00:29 | 43.11020 | -76.10350 | 415 ft | 19 kts | 87° |
| 2026-05-04 00:30 | 43.11025 | -76.10170 | 415 ft | 18 kts | 87° |
| 2026-05-04 00:30 | 43.11030 | -76.10006 | 414 ft | 14 kts | 89° |
| 2026-05-04 00:30 | 43.10976 | -76.09895 | 413 ft | 14 kts | 134° |
| 2026-05-04 00:30 | 43.10912 | -76.09805 | 410 ft | 12 kts | 133° |
| 2026-05-04 00:31 | 43.10861 | -76.09731 | 417 ft | 11 kts | 133° |
| 2026-05-04 00:31 | 43.10795 | -76.09637 | 413 ft | 16 kts | 134° |
| 2026-05-04 00:31 | 43.10722 | -76.09534 | 420 ft | 13 kts | 134° |
| 2026-05-04 00:31 | 43.10665 | -76.09451 | 422 ft | 12 kts | 131° |
| 2026-05-04 00:32 | 43.10641 | -76.09365 | 425 ft | 8 kts | 66° |
| 2026-05-04 00:32 | 43.10662 | -76.09331 | 423 ft | 3 kts | 45° |
| 2026-05-04 00:32 | 43.10685 | -76.09314 | 423 ft | 5 kts | 26° |
| 2026-05-04 00:32 | 43.10744 | -76.09325 | 430 ft | 11 kts | 314° |
| 2026-05-04 00:33 | 43.10747 | -76.09330 | 429 ft | 0 kts | 314° |
| 2026-05-04 00:33 | 43.11177 | -76.09943 | 419 ft | 137 kts | 314° |
| 2026-05-04 00:33 | 43.11874 | -76.10936 | 1033 ft | 146 kts | 313° |
| 2026-05-04 00:34 | 43.12597 | -76.11944 | 1893 ft | 148 kts | 310° |
| 2026-05-04 00:34 | 43.13406 | -76.12827 | 2746 ft | 152 kts | 322° |
| 2026-05-04 00:34 | 43.14458 | -76.13232 | 3588 ft | 164 kts | 345° |
| 2026-05-04 00:34 | 43.15617 | -76.13153 | 4395 ft | 172 kts | 352° |
| 2026-05-04 00:35 | 43.16879 | -76.13067 | 5093 ft | 192 kts | 352° |
| 2026-05-04 00:35 | 43.18303 | -76.12968 | 5711 ft | 218 kts | 353° |
| 2026-05-04 00:35 | 43.19906 | -76.12834 | 6306 ft | 244 kts | 355° |
| 2026-05-04 00:35 | 43.21609 | -76.12686 | 6893 ft | 265 kts | 355° |
| 2026-05-04 00:36 | 43.23454 | -76.12515 | 8050 ft | 265 kts | 355° |
| 2026-05-04 00:36 | 43.25307 | -76.12357 | 9231 ft | 268 kts | 354° |
| 2026-05-04 00:36 | 43.27171 | -76.12208 | 10211 ft | 274 kts | 354° |
| 2026-05-04 00:36 | 43.29150 | -76.12056 | 10625 ft | 298 kts | 355° |
| 2026-05-04 00:37 | 43.31327 | -76.11882 | 10790 ft | 326 kts | 356° |
| 2026-05-04 00:37 | 43.33660 | -76.11672 | 11301 ft | 338 kts | 357° |
| 2026-05-04 00:37 | 43.36006 | -76.11457 | 12213 ft | 338 kts | 357° |
| 2026-05-04 00:37 | 43.38347 | -76.11267 | 13006 ft | 342 kts | 357° |
| 2026-05-04 00:38 | 43.40752 | -76.11076 | 13797 ft | 346 kts | 358° |
| 2026-05-04 00:38 | 43.43165 | -76.10872 | 14357 ft | 349 kts | 358° |
| 2026-05-04 00:38 | 43.45578 | -76.10665 | 14858 ft | 352 kts | 358° |
| 2026-05-04 00:38 | 43.48030 | -76.10457 | 15392 ft | 354 kts | 358° |
| 2026-05-04 00:39 | 43.50501 | -76.10252 | 15924 ft | 357 kts | 358° |
| 2026-05-04 00:39 | 43.52990 | -76.10043 | 16478 ft | 359 kts | 358° |
| 2026-05-04 00:39 | 43.55499 | -76.09831 | 17027 ft | 362 kts | 358° |
| 2026-05-04 00:39 | 43.58032 | -76.09618 | 17625 ft | 365 kts | 358° |
| 2026-05-04 00:40 | 43.60574 | -76.09403 | 18202 ft | 367 kts | 358° |
| 2026-05-04 00:40 | 43.63136 | -76.09187 | 18707 ft | 370 kts | 358° |
| 2026-05-04 00:40 | 43.65696 | -76.08971 | 19223 ft | 372 kts | 358° |
| 2026-05-04 00:40 | 43.68290 | -76.08752 | 19746 ft | 375 kts | 358° |
| 2026-05-04 00:41 | 43.70905 | -76.08531 | 20272 ft | 377 kts | 358° |
| 2026-05-04 00:41 | 43.73541 | -76.08307 | 20792 ft | 379 kts | 358° |
| 2026-05-04 00:41 | 43.76163 | -76.08085 | 21299 ft | 382 kts | 358° |
| 2026-05-04 00:41 | 43.78824 | -76.07859 | 21820 ft | 384 kts | 358° |
| 2026-05-04 00:42 | 43.81511 | -76.07631 | 22317 ft | 387 kts | 358° |
| 2026-05-04 00:42 | 43.84208 | -76.07402 | 22801 ft | 389 kts | 358° |
| 2026-05-04 00:42 | 43.86928 | -76.07171 | 23288 ft | 392 kts | 358° |
| 2026-05-04 00:42 | 43.89623 | -76.06941 | 23705 ft | 394 kts | 358° |
| 2026-05-04 00:43 | 43.92373 | -76.06570 | 24057 ft | 401 kts | 4° |
| 2026-05-04 00:43 | 43.95111 | -76.05617 | 24457 ft | 409 kts | 12° |
| 2026-05-04 00:43 | 43.97762 | -76.04087 | 24842 ft | 416 kts | 21° |
| 2026-05-04 00:43 | 44.00305 | -76.01993 | 24878 ft | 432 kts | 27° |
| 2026-05-04 00:44 | 44.02864 | -75.99704 | 24889 ft | 443 kts | 27° |
| 2026-05-04 00:44 | 44.05512 | -75.97383 | 24889 ft | 453 kts | 27° |
| 2026-05-04 00:44 | 44.08212 | -75.95019 | 24888 ft | 463 kts | 27° |
| 2026-05-04 00:44 | 44.10928 | -75.92606 | 24856 ft | 471 kts | 27° |
| 2026-05-04 00:45 | 44.13718 | -75.90117 | 24852 ft | 478 kts | 27° |
| 2026-05-04 00:45 | 44.16539 | -75.87615 | 24851 ft | 481 kts | 27° |
| 2026-05-04 00:45 | 44.19335 | -75.85141 | 24854 ft | 482 kts | 27° |
| 2026-05-04 00:45 | 44.22178 | -75.82614 | 24851 ft | 483 kts | 27° |
| 2026-05-04 00:46 | 44.25012 | -75.80086 | 24850 ft | 483 kts | 27° |
| 2026-05-04 00:46 | 44.27857 | -75.77549 | 24849 ft | 483 kts | 27° |
| 2026-05-04 00:46 | 44.30656 | -75.75056 | 24856 ft | 484 kts | 27° |
| 2026-05-04 00:46 | 44.33498 | -75.72518 | 24849 ft | 483 kts | 28° |
| 2026-05-04 00:47 | 44.36331 | -75.69983 | 24849 ft | 484 kts | 28° |
| 2026-05-04 00:47 | 44.39174 | -75.67437 | 24847 ft | 484 kts | 28° |
| 2026-05-04 00:47 | 44.42014 | -75.64891 | 24842 ft | 484 kts | 28° |
| 2026-05-04 00:47 | 44.44815 | -75.62379 | 24840 ft | 484 kts | 28° |
| 2026-05-04 00:48 | 44.47650 | -75.59833 | 24851 ft | 484 kts | 28° |
| 2026-05-04 00:48 | 44.50486 | -75.57280 | 24834 ft | 482 kts | 28° |
| 2026-05-04 00:48 | 44.53316 | -75.54731 | 24833 ft | 483 kts | 28° |
| 2026-05-04 00:48 | 44.56147 | -75.52180 | 24830 ft | 483 kts | 28° |
| 2026-05-04 00:49 | 44.58976 | -75.49626 | 24828 ft | 483 kts | 28° |
| 2026-05-04 00:49 | 44.61762 | -75.47107 | 24829 ft | 483 kts | 28° |
| 2026-05-04 00:49 | 44.64544 | -75.44584 | 24683 ft | 460 kts | 28° |
| 2026-05-04 00:49 | 44.67140 | -75.42216 | 24291 ft | 430 kts | 27° |
| 2026-05-04 00:50 | 44.69590 | -75.39998 | 23917 ft | 408 kts | 27° |
| 2026-05-04 00:50 | 44.71908 | -75.37734 | 23546 ft | 411 kts | 33° |
| 2026-05-04 00:50 | 44.73997 | -75.34913 | 23156 ft | 419 kts | 42° |
| 2026-05-04 00:50 | 44.75911 | -75.31804 | 22787 ft | 420 kts | 44° |
| 2026-05-04 00:51 | 44.77831 | -75.28710 | 22423 ft | 418 kts | 43° |
| 2026-05-04 00:51 | 44.79729 | -75.25671 | 22049 ft | 416 kts | 43° |
| 2026-05-04 00:51 | 44.81633 | -75.22594 | 21688 ft | 415 kts | 44° |
| 2026-05-04 00:51 | 44.83525 | -75.19517 | 21309 ft | 413 kts | 44° |
| 2026-05-04 00:52 | 44.85401 | -75.16475 | 20936 ft | 411 kts | 44° |
| 2026-05-04 00:52 | 44.87276 | -75.13441 | 20574 ft | 409 kts | 44° |
| 2026-05-04 00:52 | 44.89144 | -75.10410 | 20210 ft | 407 kts | 44° |
| 2026-05-04 00:52 | 44.90995 | -75.07397 | 19848 ft | 405 kts | 44° |
| 2026-05-04 00:53 | 44.92820 | -75.04427 | 19506 ft | 403 kts | 44° |
| 2026-05-04 00:53 | 44.94660 | -75.01431 | 19138 ft | 401 kts | 44° |
| 2026-05-04 00:53 | 44.96480 | -74.98464 | 18776 ft | 399 kts | 44° |
| 2026-05-04 00:53 | 44.98257 | -74.95499 | 18422 ft | 400 kts | 47° |
| 2026-05-04 00:54 | 44.99716 | -74.92118 | 18053 ft | 403 kts | 57° |
| 2026-05-04 00:54 | 45.01077 | -74.88638 | 17671 ft | 401 kts | 56° |
| 2026-05-04 00:54 | 45.02453 | -74.85226 | 17313 ft | 398 kts | 56° |
| 2026-05-04 00:54 | 45.03823 | -74.81831 | 16960 ft | 397 kts | 56° |
| 2026-05-04 00:55 | 45.05155 | -74.78468 | 16607 ft | 395 kts | 56° |
| 2026-05-04 00:55 | 45.06498 | -74.75059 | 16244 ft | 393 kts | 56° |
| 2026-05-04 00:55 | 45.07835 | -74.71693 | 15893 ft | 391 kts | 56° |
| 2026-05-04 00:55 | 45.09154 | -74.68378 | 15548 ft | 389 kts | 56° |
| 2026-05-04 00:56 | 45.10477 | -74.65036 | 15343 ft | 387 kts | 56° |
| 2026-05-04 00:56 | 45.11801 | -74.61700 | 15037 ft | 386 kts | 55° |
| 2026-05-04 00:56 | 45.13248 | -74.58451 | 15047 ft | 395 kts | 53° |
| 2026-05-04 00:56 | 45.14702 | -74.55122 | 15069 ft | 386 kts | 54° |
| 2026-05-04 00:57 | 45.16033 | -74.51987 | 15058 ft | 374 kts | 53° |
| 2026-05-04 00:57 | 45.17440 | -74.48787 | 15008 ft | 387 kts | 53° |
| 2026-05-04 00:57 | 45.18823 | -74.45653 | 14327 ft | 366 kts | 53° |
| 2026-05-04 00:57 | 45.20180 | -74.42538 | 12852 ft | 372 kts | 53° |
| 2026-05-04 00:58 | 45.21460 | -74.39560 | 12598 ft | 342 kts | 53° |
| 2026-05-04 00:58 | 45.22650 | -74.36787 | 12341 ft | 316 kts | 53° |
| 2026-05-04 00:58 | 45.23780 | -74.34190 | 12068 ft | 303 kts | 52° |
| 2026-05-04 00:58 | 45.24883 | -74.31660 | 11800 ft | 300 kts | 52° |
| 2026-05-04 00:59 | 45.25976 | -74.29131 | 11540 ft | 301 kts | 52° |
| 2026-05-04 00:59 | 45.27059 | -74.26616 | 11281 ft | 302 kts | 52° |
| 2026-05-04 00:59 | 45.28154 | -74.24070 | 11012 ft | 302 kts | 53° |
| 2026-05-04 00:59 | 45.29257 | -74.21511 | 10740 ft | 304 kts | 53° |
| 2026-05-04 01:00 | 45.30359 | -74.18948 | 10471 ft | 303 kts | 53° |
| 2026-05-04 01:00 | 45.31461 | -74.16383 | 10203 ft | 303 kts | 53° |
| 2026-05-04 01:00 | 45.32561 | -74.13819 | 9934 ft | 302 kts | 53° |
| 2026-05-04 01:00 | 45.33641 | -74.11301 | 9664 ft | 302 kts | 53° |
| 2026-05-04 01:01 | 45.34738 | -74.08741 | 9374 ft | 301 kts | 53° |
| 2026-05-04 01:01 | 45.35837 | -74.06205 | 9097 ft | 298 kts | 52° |
| 2026-05-04 01:01 | 45.37202 | -74.04108 | 8803 ft | 290 kts | 36° |
| 2026-05-04 01:01 | 45.38708 | -74.02209 | 8574 ft | 290 kts | 36° |
| 2026-05-04 01:02 | 45.40213 | -74.00274 | 8320 ft | 290 kts | 37° |
| 2026-05-04 01:02 | 45.41693 | -73.98331 | 8061 ft | 289 kts | 37° |
| 2026-05-04 01:02 | 45.43169 | -73.96401 | 7803 ft | 287 kts | 37° |
| 2026-05-04 01:02 | 45.44647 | -73.94483 | 7550 ft | 287 kts | 37° |
| 2026-05-04 01:03 | 45.46123 | -73.92563 | 7285 ft | 286 kts | 38° |
| 2026-05-04 01:03 | 45.47569 | -73.90677 | 7033 ft | 285 kts | 38° |
| 2026-05-04 01:03 | 45.49031 | -73.88769 | 6780 ft | 285 kts | 38° |
| 2026-05-04 01:03 | 45.50493 | -73.86860 | 6527 ft | 284 kts | 38° |
| 2026-05-04 01:04 | 45.51950 | -73.84956 | 6276 ft | 283 kts | 38° |
| 2026-05-04 01:04 | 45.52911 | -73.83701 | 6101 ft | 283 kts | 38° |
| 2026-05-04 01:04 | 45.54357 | -73.81808 | 5840 ft | 281 kts | 38° |
| 2026-05-04 01:04 | 45.55793 | -73.79928 | 5587 ft | 279 kts | 38° |
| 2026-05-04 01:05 | 45.57224 | -73.78053 | 5339 ft | 278 kts | 39° |
| 2026-05-04 01:05 | 45.58645 | -73.76190 | 5092 ft | 277 kts | 39° |
| 2026-05-04 01:05 | 45.60064 | -73.74329 | 4842 ft | 275 kts | 39° |
| 2026-05-04 01:05 | 45.61470 | -73.72482 | 4595 ft | 269 kts | 39° |
| 2026-05-04 01:06 | 45.62780 | -73.70752 | 4344 ft | 244 kts | 39° |
| 2026-05-04 01:06 | 45.63965 | -73.69192 | 4122 ft | 227 kts | 39° |
| 2026-05-04 01:06 | 45.65114 | -73.67686 | 3985 ft | 220 kts | 39° |
| 2026-05-04 01:06 | 45.66255 | -73.66191 | 3996 ft | 231 kts | 39° |
| 2026-05-04 01:07 | 45.67408 | -73.64675 | 3993 ft | 228 kts | 39° |
| 2026-05-04 01:07 | 45.68581 | -73.63125 | 3993 ft | 229 kts | 39° |
| 2026-05-04 01:07 | 45.69743 | -73.61593 | 3991 ft | 229 kts | 39° |
| 2026-05-04 01:07 | 45.70920 | -73.60039 | 3990 ft | 229 kts | 39° |
| 2026-05-04 01:08 | 45.72100 | -73.58490 | 3989 ft | 230 kts | 39° |
| 2026-05-04 01:08 | 45.73201 | -73.56839 | 3935 ft | 234 kts | 56° |
| 2026-05-04 01:08 | 45.73510 | -73.54575 | 3937 ft | 236 kts | 94° |
| 2026-05-04 01:08 | 45.72953 | -73.52394 | 3964 ft | 235 kts | 127° |
| 2026-05-04 01:09 | 45.71705 | -73.50965 | 3978 ft | 229 kts | 159° |
| 2026-05-04 01:09 | 45.70193 | -73.50651 | 3988 ft | 220 kts | 189° |
| 2026-05-04 01:09 | 45.68743 | -73.51253 | 4007 ft | 217 kts | 204° |
| 2026-05-04 01:09 | 45.67308 | -73.51988 | 3803 ft | 220 kts | 203° |
| 2026-05-04 01:10 | 45.65863 | -73.52702 | 3516 ft | 216 kts | 202° |
| 2026-05-04 01:10 | 45.64504 | -73.53360 | 3220 ft | 193 kts | 203° |
| 2026-05-04 01:10 | 45.63356 | -73.53959 | 2948 ft | 163 kts | 210° |
| 2026-05-04 01:10 | 45.62503 | -73.54957 | 2850 ft | 158 kts | 228° |
| 2026-05-04 01:11 | 45.61798 | -73.56167 | 2947 ft | 161 kts | 238° |
| 2026-05-04 01:11 | 45.60995 | -73.57342 | 3002 ft | 168 kts | 226° |
| 2026-05-04 01:11 | 45.60138 | -73.58468 | 3019 ft | 168 kts | 226° |
| 2026-05-04 01:11 | 45.59262 | -73.59595 | 3012 ft | 168 kts | 225° |
| 2026-05-04 01:12 | 45.58378 | -73.60731 | 2844 ft | 171 kts | 225° |
| 2026-05-04 01:12 | 45.57515 | -73.61839 | 2616 ft | 168 kts | 225° |
| 2026-05-04 01:12 | 45.56647 | -73.62959 | 2384 ft | 168 kts | 225° |
| 2026-05-04 01:12 | 45.55783 | -73.64074 | 2150 ft | 167 kts | 224° |
| 2026-05-04 01:13 | 45.54918 | -73.65185 | 1919 ft | 167 kts | 224° |
| 2026-05-04 01:13 | 45.54051 | -73.66297 | 1689 ft | 167 kts | 224° |
| 2026-05-04 01:13 | 45.53200 | -73.67399 | 1462 ft | 166 kts | 224° |
| 2026-05-04 01:13 | 45.52336 | -73.68509 | 1230 ft | 166 kts | 223° |
| 2026-05-04 01:14 | 45.51469 | -73.69609 | 997 ft | 166 kts | 222° |
| 2026-05-04 01:14 | 45.50604 | -73.70686 | 767 ft | 160 kts | 222° |
| 2026-05-04 01:14 | 45.49849 | -73.71630 | 570 ft | 134 kts | 223° |
| 2026-05-04 01:14 | 45.49201 | -73.72432 | 390 ft | 115 kts | 225° |
| 2026-05-04 01:15 | 45.48632 | -73.73186 | 247 ft | 110 kts | 226° |
| 2026-05-04 01:15 | 45.48074 | -73.73923 | 129 ft | 107 kts | 225° |
| 2026-05-04 01:15 | 45.47590 | -73.74567 | 113 ft | 78 kts | 222° |
| 2026-05-04 01:15 | 45.47297 | -73.74946 | 118 ft | 51 kts | 223° |
| 2026-05-04 01:16 | 45.47032 | -73.75292 | 111 ft | 51 kts | 222° |
| 2026-05-04 01:16 | 45.46795 | -73.75553 | 114 ft | 30 kts | 204° |
| 2026-05-04 01:16 | 45.46610 | -73.75628 | 115 ft | 19 kts | 193° |
| 2026-05-04 01:16 | 45.46586 | -73.75636 | 115 ft | 0 kts | 192° |
| 2026-05-04 01:17 | 45.46548 | -73.75648 | 115 ft | 17 kts | 193° |
| 2026-05-04 01:17 | 45.46380 | -73.75702 | 112 ft | 33 kts | 193° |
| 2026-05-04 01:18 | 45.46174 | -73.75719 | 109 ft | 23 kts | 178° |
| 2026-05-04 01:18 | 45.46064 | -73.75686 | 106 ft | 14 kts | 117° |
| 2026-05-04 01:18 | 45.46054 | -73.75559 | 106 ft | 12 kts | 124° |
| 2026-05-04 01:18 | 45.45991 | -73.75540 | 107 ft | 6 kts | 175° |
| 2026-05-04 01:19 | 45.45974 | -73.75538 | 106 ft | 0 kts | 175° |
| 2026-05-04 01:19 | 45.45972 | -73.75538 | 106 ft | 0 kts | 175° |